In Rescue
 
Open Full Screen Window  High Contrast Mode
Wind Gusting 18 knots
12
May 13, 2021 10:02 AM CDT
Weather Information
Wind Direction
  190 °
Wind Speed
  12 kt (14 mph)
Wind Gust
  18 kt (21 mph)
Altimeter
30.33 in
Visibility
10 SM
Temperature
17° C
63° F
Dewpoint
-01° C
30° F
Humidity
30%
1hr Rain Fall
00.00 in.
24hr Rain Fall
00.00 in.
Sky Condition
Clear
VFR

METAR KMWM 131502Z AUTO 19012G18KT 10SM CLR 17/M01 A3033 RMK AO2

FAA Disclaimer: The data displayed is for advisory purposes only and is not to be used for flight planning or operations.